Time;durP1;ratioP1;P1;durP2;ratioP2;P2;SDS_P1;SDS_P2;PMS_P1;PMS_P2;Temp;Humidity;BMP_temperature;BMP_pressure;BME280_temperature;BME280_humidity;BME280_pressure;Samples;Min_cycle;Max_cycle;Signal;HPM_P1;HPM_P2
2023/11/07 00:03:20;;;;;;;7.78;1.65;;;;;;;;;;4898947;29;20052;-74
2023/11/07 00:05:51;;;;;;;10.18;1.42;;;;;;;;;;4887270;29;20056;-75
2023/11/07 00:08:21;;;;;;;6.47;1.40;;;;;;;;;;4904365;29;20044;-78
2023/11/07 00:10:51;;;;;;;15.35;1.60;;;;;;;;;;4904553;29;20437;-74
2023/11/07 00:13:22;;;;;;;6.45;1.40;;;;;;;;;;4908024;29;20079;-74
2023/11/07 00:15:55;;;;;;;6.95;2.72;;;;;;;;;;4908554;29;20059;-76
2023/11/07 00:18:25;;;;;;;8.95;1.27;;;;;;;;;;4909171;29;20103;-75
2023/11/07 00:20:56;;;;;;;9.15;1.35;;;;;;;;;;4908642;29;20056;-73
2023/11/07 00:23:27;;;;;;;4.50;1.27;;;;;;;;;;4909593;29;20044;-75
2023/11/07 00:25:58;;;;;;;8.15;1.33;;;;;;;;;;4908769;29;20503;-74
2023/11/07 00:28:28;;;;;;;7.88;1.60;;;;;;;;;;4908945;29;20052;-77
2023/11/07 00:30:58;;;;;;;7.65;1.48;;;;;;;;;;4908381;29;20052;-74
2023/11/07 00:33:29;;;;;;;8.50;1.35;;;;;;;;;;4908047;29;20069;-75
2023/11/07 00:36:00;;;;;;;5.68;1.73;;;;;;;;;;4907003;29;20048;-74
2023/11/07 00:38:30;;;;;;;5.90;1.67;;;;;;;;;;4907969;29;20052;-75
2023/11/07 00:41:00;;;;;;;5.63;1.30;;;;;;;;;;4908496;29;20614;-74
2023/11/07 00:43:31;;;;;;;6.32;1.38;;;;;;;;;;4907856;29;20055;-75
2023/11/07 00:46:06;;;;;;;7.75;1.35;;;;;;;;;;4907532;29;21109;-74
2023/11/07 00:48:36;;;;;;;8.00;1.60;;;;;;;;;;4907039;29;20067;-74
2023/11/07 00:51:07;;;;;;;6.00;1.50;;;;;;;;;;4907001;29;20063;-75
2023/11/07 00:53:38;;;;;;;6.50;1.20;;;;;;;;;;4906289;29;20064;-73
2023/11/07 00:56:09;;;;;;;10.45;1.70;;;;;;;;;;4906104;29;20051;-75
2023/11/07 00:58:39;;;;;;;8.75;1.52;;;;;;;;;;4907493;29;20068;-75
2023/11/07 01:01:09;;;;;;;7.93;1.13;;;;;;;;;;4908195;29;20052;-74
2023/11/07 01:03:41;;;;;;;5.78;1.30;;;;;;;;;;4908407;29;20563;-74
2023/11/07 01:06:14;;;;;;;13.75;1.85;;;;;;;;;;4906649;29;20503;-75
2023/11/07 01:08:44;;;;;;;7.97;1.35;;;;;;;;;;4906746;29;20064;-76
2023/11/07 01:11:14;;;;;;;5.43;1.13;;;;;;;;;;4906650;29;20055;-75
2023/11/07 01:13:44;;;;;;;7.10;1.75;;;;;;;;;;4907637;29;20056;-74
2023/11/07 01:16:16;;;;;;;6.10;1.30;;;;;;;;;;4906770;29;20508;-75
2023/11/07 01:18:46;;;;;;;6.15;1.50;;;;;;;;;;4907824;29;20048;-75
2023/11/07 01:21:16;;;;;;;7.25;1.45;;;;;;;;;;4908180;29;20063;-76
2023/11/07 01:23:48;;;;;;;7.07;1.63;;;;;;;;;;4907703;29;20055;-74
2023/11/07 01:26:20;;;;;;;7.63;1.33;;;;;;;;;;4907996;29;21114;-74
2023/11/07 01:28:59;;;;;;;7.88;1.73;;;;;;;;;;4908590;29;20044;-74
2023/11/07 01:31:31;;;;;;;7.65;1.67;;;;;;;;;;4907857;29;20066;-75
2023/11/07 01:34:02;;;;;;;5.05;1.33;;;;;;;;;;4907692;29;20554;-75
2023/11/07 01:36:33;;;;;;;7.57;1.20;;;;;;;;;;4908208;29;20060;-74
2023/11/07 01:39:05;;;;;;;7.00;1.17;;;;;;;;;;4906327;29;20055;-75
2023/11/07 01:41:36;;;;;;;6.30;1.23;;;;;;;;;;4907660;29;20415;-74
2023/11/07 01:44:07;;;;;;;6.93;1.65;;;;;;;;;;4907314;29;20059;-74
2023/11/07 01:46:39;;;;;;;5.60;1.48;;;;;;;;;;4907645;29;20052;-74
2023/11/07 01:49:11;;;;;;;4.35;1.50;;;;;;;;;;4905853;29;20574;-74
2023/11/07 01:51:49;;;;;;;7.32;1.70;;;;;;;;;;4907158;29;20059;-75
2023/11/07 01:54:22;;;;;;;4.50;1.65;;;;;;;;;;4907138;29;20395;-74
2023/11/07 01:56:53;;;;;;;5.78;1.80;;;;;;;;;;4907031;29;20048;-73
2023/11/07 01:59:24;;;;;;;6.45;1.60;;;;;;;;;;4906066;29;20338;-75
2023/11/07 02:01:59;;;;;;;5.72;1.30;;;;;;;;;;4905592;29;20060;-75
2023/11/07 02:04:31;;;;;;;7.78;1.45;;;;;;;;;;4906971;29;20055;-75
2023/11/07 02:07:03;;;;;;;9.25;1.65;;;;;;;;;;4905571;29;20055;-74
2023/11/07 02:09:42;;;;;;;7.40;1.77;;;;;;;;;;4907239;29;20438;-74
2023/11/07 02:12:16;;;;;;;8.40;1.63;;;;;;;;;;4905901;29;20529;-78
2023/11/07 02:14:46;;;;;;;5.30;1.55;;;;;;;;;;4907228;29;20498;-74
2023/11/07 02:17:16;;;;;;;11.48;1.45;;;;;;;;;;4906642;29;20052;-74
2023/11/07 02:19:47;;;;;;;10.07;1.65;;;;;;;;;;4906853;29;20059;-74
2023/11/07 02:22:22;;;;;;;4.35;1.48;;;;;;;;;;4906793;29;20530;-74
2023/11/07 02:24:53;;;;;;;7.57;1.70;;;;;;;;;;4906728;29;20063;-74
2023/11/07 02:27:23;;;;;;;6.07;1.40;;;;;;;;;;4906770;29;20047;-75
2023/11/07 02:29:56;;;;;;;10.48;1.73;;;;;;;;;;4906505;29;20530;-74
2023/11/07 02:32:27;;;;;;;5.65;1.40;;;;;;;;;;4906691;29;20526;-74
2023/11/07 02:34:57;;;;;;;4.47;2.05;;;;;;;;;;4905849;29;20797;-75
2023/11/07 02:37:28;;;;;;;3.35;1.42;;;;;;;;;;4906284;29;20434;-73
2023/11/07 02:40:01;;;;;;;4.75;1.75;;;;;;;;;;4906666;29;20487;-75
2023/11/07 02:42:33;;;;;;;7.07;1.65;;;;;;;;;;4906126;29;20056;-74
2023/11/07 02:45:04;;;;;;;5.82;1.65;;;;;;;;;;4905219;29;20060;-75
2023/11/07 02:47:33;;;;;;;8.65;1.98;;;;;;;;;;4905961;29;20621;-75
2023/11/07 02:50:10;;;;;;;9.77;2.08;;;;;;;;;;4907258;29;20059;-75
2023/11/07 02:52:41;;;;;;;6.75;2.35;;;;;;;;;;4906170;29;20048;-74
2023/11/07 02:55:11;;;;;;;4.72;1.60;;;;;;;;;;4907048;29;20055;-74
2023/11/07 02:57:42;;;;;;;6.22;1.42;;;;;;;;;;4904937;29;20056;-75
2023/11/07 03:00:13;;;;;;;5.75;1.67;;;;;;;;;;4890197;29;20060;-74
2023/11/07 03:02:44;;;;;;;9.85;2.20;;;;;;;;;;4904358;29;20649;-75
2023/11/07 03:05:14;;;;;;;5.60;1.58;;;;;;;;;;4906021;29;20059;-75
2023/11/07 03:07:45;;;;;;;5.63;1.60;;;;;;;;;;4906482;29;20055;-74
2023/11/07 03:10:15;;;;;;;8.90;1.88;;;;;;;;;;4905668;29;20511;-75
2023/11/07 03:12:48;;;;;;;7.05;2.00;;;;;;;;;;4905754;29;20637;-74
2023/11/07 03:15:30;;;;;;;5.13;2.00;;;;;;;;;;4906528;29;20134;-75
2023/11/07 03:18:01;;;;;;;8.75;2.05;;;;;;;;;;4906092;29;20535;-74
2023/11/07 03:20:36;;;;;;;8.77;1.90;;;;;;;;;;4906176;29;20052;-75
2023/11/07 03:23:06;;;;;;;5.60;1.83;;;;;;;;;;4906269;29;20633;-74
2023/11/07 03:25:37;;;;;;;7.70;2.10;;;;;;;;;;4905829;29;20048;-75
2023/11/07 03:28:10;;;;;;;5.80;1.95;;;;;;;;;;4904425;29;20562;-74
2023/11/07 03:30:41;;;;;;;8.00;1.80;;;;;;;;;;4904956;29;20048;-74
2023/11/07 03:33:11;;;;;;;7.30;1.75;;;;;;;;;;4906827;29;20051;-74
2023/11/07 03:35:43;;;;;;;4.38;1.60;;;;;;;;;;4906122;29;20795;-74
2023/11/07 03:38:14;;;;;;;7.50;2.17;;;;;;;;;;4905794;29;20040;-74
2023/11/07 03:40:44;;;;;;;3.83;1.60;;;;;;;;;;4904478;29;20059;-74
2023/11/07 03:43:17;;;;;;;4.13;1.70;;;;;;;;;;4904292;29;20056;-75
2023/11/07 03:45:48;;;;;;;5.72;1.60;;;;;;;;;;4906293;29;20533;-75
2023/11/07 03:48:17;;;;;;;7.32;1.92;;;;;;;;;;4909309;29;20059;-75
2023/11/07 03:50:49;;;;;;;4.82;1.85;;;;;;;;;;4909809;29;20052;-74
2023/11/07 03:53:21;;;;;;;5.93;1.50;;;;;;;;;;4909161;29;20052;-73
2023/11/07 03:55:52;;;;;;;3.42;1.35;;;;;;;;;;4910001;29;20048;-74
2023/11/07 03:58:22;;;;;;;8.95;1.80;;;;;;;;;;4909582;29;20526;-75
2023/11/07 04:00:52;;;;;;;9.80;2.05;;;;;;;;;;4908850;29;20055;-74
2023/11/07 04:03:24;;;;;;;4.45;1.63;;;;;;;;;;4909230;29;20052;-75
2023/11/07 04:05:55;;;;;;;8.57;2.05;;;;;;;;;;4909077;29;20054;-75
2023/11/07 04:08:27;;;;;;;4.22;1.75;;;;;;;;;;4909429;29;20048;-74
2023/11/07 04:10:57;;;;;;;4.47;2.00;;;;;;;;;;4909585;29;20412;-74
2023/11/07 04:13:27;;;;;;;5.97;1.60;;;;;;;;;;4908508;29;20063;-74
2023/11/07 04:15:59;;;;;;;7.30;2.00;;;;;;;;;;4909016;29;20063;-74
2023/11/07 04:18:29;;;;;;;11.18;2.08;;;;;;;;;;4906870;29;20060;-74
2023/11/07 04:21:03;;;;;;;5.80;2.15;;;;;;;;;;4908529;29;20070;-77
2023/11/07 04:23:34;;;;;;;6.63;1.73;;;;;;;;;;4909219;29;20048;-75
2023/11/07 04:26:05;;;;;;;4.05;1.38;;;;;;;;;;4907745;29;20128;-75
2023/11/07 04:28:39;;;;;;;5.13;1.50;;;;;;;;;;4908941;29;20051;-73
2023/11/07 04:31:09;;;;;;;6.10;1.70;;;;;;;;;;4908616;29;20404;-74
2023/11/07 04:33:41;;;;;;;4.93;1.45;;;;;;;;;;4908585;29;20052;-74
2023/11/07 04:36:14;;;;;;;5.30;1.77;;;;;;;;;;4908835;29;20059;-74
2023/11/07 04:38:45;;;;;;;4.78;1.77;;;;;;;;;;4909168;29;20048;-73
2023/11/07 04:41:16;;;;;;;8.60;1.90;;;;;;;;;;4908761;29;20056;-74
2023/11/07 04:43:46;;;;;;;4.95;1.52;;;;;;;;;;4908739;29;20439;-75
2023/11/07 04:46:17;;;;;;;8.77;2.20;;;;;;;;;;4909008;29;20047;-74
2023/11/07 04:48:50;;;;;;;8.75;2.22;;;;;;;;;;4906480;29;20048;-74
2023/11/07 04:51:22;;;;;;;5.28;1.50;;;;;;;;;;4906276;29;20423;-75
2023/11/07 04:53:56;;;;;;;8.45;1.98;;;;;;;;;;4907865;29;20518;-75
2023/11/07 04:56:27;;;;;;;4.75;2.00;;;;;;;;;;4908341;29;20710;-72
2023/11/07 04:58:57;;;;;;;6.32;1.42;;;;;;;;;;4907705;29;20423;-73
2023/11/07 05:01:27;;;;;;;3.15;1.55;;;;;;;;;;4891850;29;20067;-74
2023/11/07 05:03:58;;;;;;;4.65;1.80;;;;;;;;;;4908866;29;20056;-73
2023/11/07 05:06:30;;;;;;;6.60;1.90;;;;;;;;;;4906914;29;20520;-73
2023/11/07 05:09:07;;;;;;;4.80;1.52;;;;;;;;;;4906157;29;20056;-73
2023/11/07 05:11:41;;;;;;;3.63;1.63;;;;;;;;;;4908381;29;20529;-73
2023/11/07 05:14:11;;;;;;;4.10;1.75;;;;;;;;;;4908040;29;20515;-73
2023/11/07 05:16:41;;;;;;;16.13;2.10;;;;;;;;;;4907942;29;20052;-73
2023/11/07 05:19:14;;;;;;;4.50;1.95;;;;;;;;;;4908287;29;20056;-73
2023/11/07 05:21:44;;;;;;;4.60;1.60;;;;;;;;;;4907525;29;20523;-72
2023/11/07 05:24:15;;;;;;;5.90;1.52;;;;;;;;;;4907735;29;20044;-74
2023/11/07 05:26:46;;;;;;;5.45;1.90;;;;;;;;;;4907822;29;20044;-73
2023/11/07 05:29:19;;;;;;;5.47;1.85;;;;;;;;;;4907763;29;20056;-73
2023/11/07 05:31:50;;;;;;;3.88;1.70;;;;;;;;;;4907658;29;20500;-73
2023/11/07 05:34:19;;;;;;;4.50;1.98;;;;;;;;;;4907868;29;20056;-73
2023/11/07 05:36:50;;;;;;;4.57;1.80;;;;;;;;;;4907496;29;20056;-73
2023/11/07 05:39:21;;;;;;;9.73;1.83;;;;;;;;;;4907300;29;20044;-73
2023/11/07 05:41:51;;;;;;;4.78;1.70;;;;;;;;;;4907680;29;20059;-74
2023/11/07 05:44:22;;;;;;;10.15;2.05;;;;;;;;;;4907855;29;20519;-72
2023/11/07 05:46:53;;;;;;;6.10;1.90;;;;;;;;;;4905824;29;20060;-74
2023/11/07 05:49:24;;;;;;;5.00;1.67;;;;;;;;;;4907137;29;20056;-73
2023/11/07 05:51:56;;;;;;;7.55;2.00;;;;;;;;;;4907338;29;20048;-73
2023/11/07 05:54:26;;;;;;;4.70;1.90;;;;;;;;;;4907315;29;20048;-73
2023/11/07 05:56:56;;;;;;;5.18;1.92;;;;;;;;;;4907148;29;20048;-73
2023/11/07 05:59:28;;;;;;;5.00;1.70;;;;;;;;;;4907716;29;20834;-73
2023/11/07 06:01:58;;;;;;;7.88;1.83;;;;;;;;;;4906916;29;20070;-73
2023/11/07 06:04:36;;;;;;;6.20;1.70;;;;;;;;;;4907041;29;20511;-74
2023/11/07 06:07:07;;;;;;;5.53;1.85;;;;;;;;;;4907759;29;20415;-74
2023/11/07 06:09:37;;;;;;;6.38;1.80;;;;;;;;;;4907077;29;20059;-72
2023/11/07 06:12:07;;;;;;;9.52;1.90;;;;;;;;;;4905722;29;20044;-73
2023/11/07 06:14:40;;;;;;;4.43;1.67;;;;;;;;;;4906769;29;20048;-73
2023/11/07 06:17:12;;;;;;;4.63;1.63;;;;;;;;;;4906763;29;20047;-73
2023/11/07 06:19:42;;;;;;;6.50;1.83;;;;;;;;;;4906115;29;20048;-73
2023/11/07 06:22:12;;;;;;;5.10;2.17;;;;;;;;;;4906965;29;20056;-74
2023/11/07 06:24:43;;;;;;;6.88;2.05;;;;;;;;;;4906833;29;20055;-72
2023/11/07 06:27:15;;;;;;;7.68;1.90;;;;;;;;;;4907141;29;20055;-73
2023/11/07 06:29:48;;;;;;;6.00;1.73;;;;;;;;;;4906604;29;20056;-73
2023/11/07 06:32:19;;;;;;;5.90;1.58;;;;;;;;;;4890045;29;20064;-73
2023/11/07 06:34:49;;;;;;;6.57;2.00;;;;;;;;;;4906945;29;20059;-72
2023/11/07 06:37:19;;;;;;;5.13;1.60;;;;;;;;;;4906813;29;20499;-73
2023/11/07 06:39:51;;;;;;;7.60;1.58;;;;;;;;;;4906978;29;20064;-72
2023/11/07 06:42:22;;;;;;;5.47;1.77;;;;;;;;;;4903256;29;20056;-73
2023/11/07 06:44:52;;;;;;;2.63;1.60;;;;;;;;;;4906449;29;20056;-72
2023/11/07 06:47:22;;;;;;;6.03;1.67;;;;;;;;;;4906338;29;20052;-73
2023/11/07 06:49:52;;;;;;;7.03;1.58;;;;;;;;;;4906385;29;20054;-73
2023/11/07 06:52:23;;;;;;;5.15;1.70;;;;;;;;;;4905850;29;20047;-74
2023/11/07 06:54:54;;;;;;;6.65;1.65;;;;;;;;;;4906686;29;20530;-73
2023/11/07 06:57:24;;;;;;;3.08;1.48;;;;;;;;;;4904876;29;20047;-73
2023/11/07 06:59:54;;;;;;;3.75;1.80;;;;;;;;;;4906109;29;20063;-73
2023/11/07 07:02:25;;;;;;;6.88;1.75;;;;;;;;;;4906067;29;20052;-74
2023/11/07 07:04:57;;;;;;;9.50;1.90;;;;;;;;;;4906220;29;20500;-73
2023/11/07 07:07:29;;;;;;;4.18;1.77;;;;;;;;;;4906495;29;20052;-74
2023/11/07 07:09:59;;;;;;;3.08;1.55;;;;;;;;;;4906407;29;20416;-73
2023/11/07 07:12:30;;;;;;;4.00;1.58;;;;;;;;;;4906054;29;20063;-74
2023/11/07 07:15:01;;;;;;;3.35;1.83;;;;;;;;;;4906415;29;20416;-73
2023/11/07 07:17:32;;;;;;;4.60;1.95;;;;;;;;;;4906004;29;20803;-73
2023/11/07 07:20:03;;;;;;;4.30;1.73;;;;;;;;;;4906257;29;20040;-73
2023/11/07 07:22:35;;;;;;;6.50;1.73;;;;;;;;;;4905267;29;20055;-74
2023/11/07 07:25:07;;;;;;;6.85;2.10;;;;;;;;;;4906164;29;20523;-72
2023/11/07 07:27:39;;;;;;;2.97;1.75;;;;;;;;;;4905845;29;20056;-73
2023/11/07 07:30:09;;;;;;;9.95;1.70;;;;;;;;;;4906290;29;20491;-73
2023/11/07 07:32:41;;;;;;;8.82;1.77;;;;;;;;;;4905996;29;20047;-73
2023/11/07 07:35:15;;;;;;;3.38;1.67;;;;;;;;;;4905765;29;20056;-72
2023/11/07 07:37:51;;;;;;;4.43;2.05;;;;;;;;;;4905290;29;20436;-73
2023/11/07 07:40:29;;;;;;;5.88;1.85;;;;;;;;;;4905619;29;20052;-74
2023/11/07 07:43:08;;;;;;;7.13;2.17;;;;;;;;;;4906482;29;21316;-75
2023/11/07 07:45:42;;;;;;;3.25;1.73;;;;;;;;;;4906258;29;20056;-74
2023/11/07 07:48:14;;;;;;;6.80;1.95;;;;;;;;;;4905763;29;20056;-74
2023/11/07 07:50:46;;;;;;;6.10;1.90;;;;;;;;;;4904221;29;20419;-74
2023/11/07 07:53:17;;;;;;;7.47;1.80;;;;;;;;;;4905683;29;20052;-74
2023/11/07 07:55:50;;;;;;;3.33;1.75;;;;;;;;;;4905665;29;20052;-75
2023/11/07 07:58:20;;;;;;;2.30;1.45;;;;;;;;;;4906443;29;20048;-75
2023/11/07 08:00:52;;;;;;;2.90;1.63;;;;;;;;;;4906157;29;20049;-74
2023/11/07 08:03:22;;;;;;;4.30;1.52;;;;;;;;;;4905824;29;20060;-74
2023/11/07 08:05:52;;;;;;;3.85;1.52;;;;;;;;;;4906167;29;20059;-74
2023/11/07 08:08:24;;;;;;;7.32;1.80;;;;;;;;;;4905315;29;20102;-74
2023/11/07 08:10:57;;;;;;;5.05;1.77;;;;;;;;;;4905528;29;20052;-75
2023/11/07 08:13:29;;;;;;;3.67;1.50;;;;;;;;;;4905469;29;20087;-74
2023/11/07 08:15:58;;;;;;;6.13;1.88;;;;;;;;;;4905268;29;20068;-75
2023/11/07 08:18:29;;;;;;;8.93;1.65;;;;;;;;;;4905731;29;20060;-74
2023/11/07 08:21:01;;;;;;;5.10;1.65;;;;;;;;;;4905421;29;20059;-74
2023/11/07 08:23:31;;;;;;;7.22;1.70;;;;;;;;;;4905647;29;20044;-74
2023/11/07 08:26:03;;;;;;;4.07;1.85;;;;;;;;;;4888264;29;20040;-73
2023/11/07 08:28:33;;;;;;;3.67;1.65;;;;;;;;;;4905761;29;20075;-74
2023/11/07 08:31:03;;;;;;;6.28;2.47;;;;;;;;;;4905501;29;20052;-74
2023/11/07 08:33:35;;;;;;;5.22;1.80;;;;;;;;;;4907077;29;20631;-74
2023/11/07 08:36:09;;;;;;;2.50;1.70;;;;;;;;;;4909544;29;20048;-75
2023/11/07 08:38:40;;;;;;;4.60;2.08;;;;;;;;;;4908335;29;20863;-74
2023/11/07 08:41:12;;;;;;;3.55;2.30;;;;;;;;;;4908423;29;20044;-73
2023/11/07 08:43:42;;;;;;;2.97;1.70;;;;;;;;;;4908338;29;20411;-78
2023/11/07 08:46:23;;;;;;;7.75;2.80;;;;;;;;;;4908398;29;20055;-74
2023/11/07 08:48:56;;;;;;;10.23;1.73;;;;;;;;;;4908525;29;20052;-74
2023/11/07 08:51:28;;;;;;;6.53;1.80;;;;;;;;;;4908810;29;20048;-74
2023/11/07 08:53:58;;;;;;;4.57;2.17;;;;;;;;;;4908306;29;20059;-74
2023/11/07 08:56:29;;;;;;;5.00;2.17;;;;;;;;;;4908036;29;20530;-74
2023/11/07 08:58:59;;;;;;;8.02;1.88;;;;;;;;;;4907058;29;20056;-77
2023/11/07 09:01:30;;;;;;;8.23;1.77;;;;;;;;;;4907552;29;20622;-74
2023/11/07 09:04:00;;;;;;;6.38;2.03;;;;;;;;;;4908821;29;20134;-74
2023/11/07 09:06:32;;;;;;;7.60;1.73;;;;;;;;;;4907382;29;20059;-75
2023/11/07 09:09:02;;;;;;;9.20;1.80;;;;;;;;;;4908680;29;20056;-74
2023/11/07 09:11:32;;;;;;;8.90;2.08;;;;;;;;;;4908229;29;20369;-74
2023/11/07 09:14:02;;;;;;;7.28;2.15;;;;;;;;;;4908381;29;20411;-75
2023/11/07 09:16:34;;;;;;;3.70;1.92;;;;;;;;;;4908182;29;20052;-74
2023/11/07 09:19:04;;;;;;;6.35;2.10;;;;;;;;;;4908039;29;20052;-74
2023/11/07 09:21:37;;;;;;;5.38;2.40;;;;;;;;;;4907918;29;20052;-74
2023/11/07 09:24:08;;;;;;;5.13;1.88;;;;;;;;;;4908137;29;20052;-74
2023/11/07 09:26:40;;;;;;;3.40;1.88;;;;;;;;;;4907818;29;20064;-73
2023/11/07 09:29:11;;;;;;;7.93;2.25;;;;;;;;;;4907467;29;20396;-74
2023/11/07 09:31:43;;;;;;;4.95;2.05;;;;;;;;;;4906043;29;20514;-81
2023/11/07 09:34:14;;;;;;;4.25;2.42;;;;;;;;;;4907967;29;20503;-78
2023/11/07 09:36:45;;;;;;;8.13;2.85;;;;;;;;;;4907463;29;20526;-74
2023/11/07 09:39:16;;;;;;;11.27;2.92;;;;;;;;;;4907311;29;20059;-73
2023/11/07 09:41:47;;;;;;;6.90;3.17;;;;;;;;;;4907602;29;20419;-74
2023/11/07 09:44:17;;;;;;;6.60;2.50;;;;;;;;;;4907201;29;20051;-78
2023/11/07 09:46:51;;;;;;;11.82;3.53;;;;;;;;;;4907610;29;20527;-75
2023/11/07 09:49:22;;;;;;;8.30;2.80;;;;;;;;;;4907961;29;20056;-79
2023/11/07 09:51:59;;;;;;;10.90;3.03;;;;;;;;;;4907959;29;20419;-77
2023/11/07 09:54:30;;;;;;;10.80;2.80;;;;;;;;;;4907401;29;20431;-76
2023/11/07 09:57:06;;;;;;;8.27;2.67;;;;;;;;;;4906142;29;20052;-76
2023/11/07 09:59:49;;;;;;;7.28;2.95;;;;;;;;;;4907216;29;20048;-74
2023/11/07 10:02:21;;;;;;;7.07;3.15;;;;;;;;;;4907222;29;20530;-74
2023/11/07 10:04:52;;;;;;;10.52;3.25;;;;;;;;;;4907248;29;20055;-74
2023/11/07 10:07:24;;;;;;;7.55;2.88;;;;;;;;;;4907275;29;20059;-75
2023/11/07 10:09:57;;;;;;;9.25;3.25;;;;;;;;;;4907279;29;20056;-75
2023/11/07 10:12:28;;;;;;;10.02;2.85;;;;;;;;;;4906490;29;20055;-75
2023/11/07 10:14:59;;;;;;;7.32;2.42;;;;;;;;;;4907927;29;20060;-74
2023/11/07 10:17:30;;;;;;;10.55;2.25;;;;;;;;;;4906909;29;20059;-73
2023/11/07 10:20:05;;;;;;;8.63;2.63;;;;;;;;;;4907054;29;20060;-74
2023/11/07 10:22:45;;;;;;;8.48;3.17;;;;;;;;;;4907313;29;20056;-74
2023/11/07 10:25:36;;;;;;;10.27;2.70;;;;;;;;;;4907351;29;20048;-75
2023/11/07 10:28:09;;;;;;;8.68;2.38;;;;;;;;;;4907017;29;20418;-76
2023/11/07 10:30:48;;;;;;;11.30;2.50;;;;;;;;;;4907531;29;20064;-77
2023/11/07 10:33:34;;;;;;;5.85;1.55;;;;;;;;;;4906761;29;20056;-77
2023/11/07 10:36:06;;;;;;;13.90;10.30;;;;;;;;;;4906415;29;20559;-75
2023/11/07 10:38:40;;;;;;;7.05;2.80;;;;;;;;;;4906611;29;20055;-75
2023/11/07 10:41:26;;;;;;;9.88;1.98;;;;;;;;;;4906077;29;20507;-75
2023/11/07 10:43:58;;;;;;;7.53;2.00;;;;;;;;;;4904960;29;20063;-77
2023/11/07 10:46:28;;;;;;;3.70;1.50;;;;;;;;;;4905727;29;20079;-75
2023/11/07 10:49:05;;;;;;;6.43;1.85;;;;;;;;;;4906098;29;20055;-75
2023/11/07 10:51:36;;;;;;;7.13;1.88;;;;;;;;;;4906130;29;20621;-74
2023/11/07 10:54:07;;;;;;;4.88;1.50;;;;;;;;;;4906144;29;20514;-74
2023/11/07 10:56:41;;;;;;;3.67;1.65;;;;;;;;;;4905591;29;20044;-74
2023/11/07 10:59:24;;;;;;;9.95;4.35;;;;;;;;;;4914740;29;20054;-75
2023/11/07 11:02:01;;;;;;;13.10;2.03;;;;;;;;;;4924142;29;20059;-75
2023/11/07 11:04:38;;;;;;;8.48;1.80;;;;;;;;;;4923983;29;20062;-74
2023/11/07 11:07:10;;;;;;;9.32;2.70;;;;;;;;;;4925479;29;20396;-74
2023/11/07 11:09:42;;;;;;;8.00;1.80;;;;;;;;;;4924560;29;20063;-72
2023/11/07 11:12:14;;;;;;;4.90;2.05;;;;;;;;;;4923299;29;20060;-73
2023/11/07 11:14:46;;;;;;;13.52;2.20;;;;;;;;;;4924924;29;20499;-79
2023/11/07 11:17:30;;;;;;;12.60;2.25;;;;;;;;;;4924806;29;20055;-73
2023/11/07 11:20:39;;;;;;;14.43;2.58;;;;;;;;;;4925331;29;20090;-73
2023/11/07 11:23:39;;;;;;;3.85;1.70;;;;;;;;;;4923031;29;20060;-73
2023/11/07 11:26:24;;;;;;;6.15;2.00;;;;;;;;;;4924762;29;20434;-80
2023/11/07 11:28:54;;;;;;;5.43;1.85;;;;;;;;;;4925116;29;20048;-76
2023/11/07 11:31:27;;;;;;;12.45;4.07;;;;;;;;;;4924077;29;20058;-75
2023/11/07 11:34:29;;;;;;;4.65;1.50;;;;;;;;;;4924714;29;20103;-73
2023/11/07 11:37:02;;;;;;;4.85;2.05;;;;;;;;;;4925103;29;20045;-75
2023/11/07 11:39:33;;;;;;;8.30;1.80;;;;;;;;;;4924880;29;20051;-75
2023/11/07 11:42:09;;;;;;;5.88;1.83;;;;;;;;;;4924610;29;20717;-74
2023/11/07 11:44:40;;;;;;;5.72;1.98;;;;;;;;;;4924997;29;20808;-74
2023/11/07 11:47:51;;;;;;;4.85;1.80;;;;;;;;;;4924878;29;20056;-74
2023/11/07 11:50:21;;;;;;;6.25;1.92;;;;;;;;;;4924697;29;20391;-75
2023/11/07 11:52:54;;;;;;;5.25;1.75;;;;;;;;;;4924948;29;20078;-75
2023/11/07 11:56:00;;;;;;;4.25;1.60;;;;;;;;;;4925313;29;20051;-74
2023/11/07 11:58:33;;;;;;;3.17;1.60;;;;;;;;;;4924170;29;20054;-74
2023/11/07 12:01:03;;;;;;;7.20;2.40;;;;;;;;;;4924750;29;20067;-73
2023/11/07 12:03:45;;;;;;;5.80;2.08;;;;;;;;;;4924516;29;20060;-74
2023/11/07 12:06:16;;;;;;;4.90;2.00;;;;;;;;;;4923597;29;20132;-75
2023/11/07 12:08:48;;;;;;;5.00;1.83;;;;;;;;;;4928032;29;20125;-76
2023/11/07 12:11:18;;;;;;;5.45;1.60;;;;;;;;;;4927731;29;20055;-75
2023/11/07 12:14:02;;;;;;;5.15;1.80;;;;;;;;;;4928355;29;21059;-74
2023/11/07 12:16:32;;;;;;;4.47;1.83;;;;;;;;;;4928028;29;20078;-75
2023/11/07 12:19:03;;;;;;;8.25;1.90;;;;;;;;;;4927776;29;20059;-75
2023/11/07 12:21:33;;;;;;;10.77;2.20;;;;;;;;;;4926490;29;20056;-75
2023/11/07 12:24:04;;;;;;;5.70;1.63;;;;;;;;;;4928244;29;20051;-76
2023/11/07 12:26:42;;;;;;;4.47;1.73;;;;;;;;;;4927823;29;20078;-76
2023/11/07 12:29:13;;;;;;;5.93;1.80;;;;;;;;;;4927180;29;20056;-75
2023/11/07 12:31:44;;;;;;;3.03;1.60;;;;;;;;;;4929046;29;20060;-74
2023/11/07 12:34:35;;;;;;;8.52;3.22;;;;;;;;;;4929399;29;20404;-75
2023/11/07 12:37:25;;;;;;;11.23;5.63;;;;;;;;;;4928027;29;20055;-76
2023/11/07 12:39:55;;;;;;;6.53;2.95;;;;;;;;;;4927552;29;20059;-75
2023/11/07 12:42:27;;;;;;;12.43;5.53;;;;;;;;;;4927719;29;20063;-75
2023/11/07 12:44:58;;;;;;;12.52;5.30;;;;;;;;;;4928182;29;20055;-75
2023/11/07 12:47:29;;;;;;;4.72;2.03;;;;;;;;;;4927394;29;20888;-75
2023/11/07 12:50:00;;;;;;;3.35;1.70;;;;;;;;;;4927287;29;20077;-75
2023/11/07 12:52:31;;;;;;;9.85;1.90;;;;;;;;;;4926174;29;20055;-75
2023/11/07 12:55:17;;;;;;;4.90;1.52;;;;;;;;;;4927378;29;20066;-75
2023/11/07 12:57:51;;;;;;;5.85;1.60;;;;;;;;;;4926591;29;20063;-76
2023/11/07 13:00:21;;;;;;;4.75;1.77;;;;;;;;;;4927308;29;20063;-76
2023/11/07 13:02:59;;;;;;;7.13;1.60;;;;;;;;;;4927244;29;20586;-75
2023/11/07 13:05:30;;;;;;;3.33;1.50;;;;;;;;;;4927369;29;20047;-73
2023/11/07 13:08:03;;;;;;;3.40;1.30;;;;;;;;;;4928249;29;20052;-75
2023/11/07 13:10:33;;;;;;;5.43;1.35;;;;;;;;;;4926772;29;20058;-77
2023/11/07 13:13:03;;;;;;;4.28;1.60;;;;;;;;;;4926859;29;20070;-75
2023/11/07 13:15:34;;;;;;;3.00;1.20;;;;;;;;;;4926875;29;20097;-74
2023/11/07 13:18:05;;;;;;;4.35;1.38;;;;;;;;;;4926559;29;20732;-75
2023/11/07 13:20:36;;;;;;;2.53;1.33;;;;;;;;;;4926398;29;20457;-76
2023/11/07 13:23:05;;;;;;;5.22;1.90;;;;;;;;;;4926890;29;20043;-76
2023/11/07 13:25:35;;;;;;;9.45;2.03;;;;;;;;;;4926677;29;20395;-76
2023/11/07 13:28:06;;;;;;;10.23;2.08;;;;;;;;;;4925976;29;20055;-76
2023/11/07 13:30:42;;;;;;;6.32;1.95;;;;;;;;;;4927204;29;20059;-76
2023/11/07 13:33:12;;;;;;;3.08;1.42;;;;;;;;;;4926768;29;20060;-75
2023/11/07 13:35:47;;;;;;;3.42;1.48;;;;;;;;;;4926590;29;20628;-75
2023/11/07 13:38:18;;;;;;;4.43;1.52;;;;;;;;;;4925334;29;20067;-76
2023/11/07 13:40:49;;;;;;;5.20;1.70;;;;;;;;;;4926093;29;20051;-75
2023/11/07 13:43:19;;;;;;;5.80;1.70;;;;;;;;;;4926779;29;20499;-76
2023/11/07 13:45:52;;;;;;;4.68;1.55;;;;;;;;;;4925050;29;20674;-75
2023/11/07 13:48:25;;;;;;;1.95;1.42;;;;;;;;;;4926433;29;20052;-76
2023/11/07 13:50:56;;;;;;;5.05;1.88;;;;;;;;;;4925720;29;20054;-82
2023/11/07 13:53:27;;;;;;;4.60;1.65;;;;;;;;;;4925420;29;20058;-76
2023/11/07 13:55:59;;;;;;;5.07;1.73;;;;;;;;;;4926501;29;20047;-76
2023/11/07 13:58:30;;;;;;;4.57;1.90;;;;;;;;;;4926913;29;20044;-77
2023/11/07 14:01:01;;;;;;;4.03;1.75;;;;;;;;;;4926708;29;20051;-76
2023/11/07 14:03:32;;;;;;;7.90;2.20;;;;;;;;;;4925975;29;20058;-76
2023/11/07 14:06:02;;;;;;;4.20;1.70;;;;;;;;;;4926205;29;20047;-76
2023/11/07 14:08:33;;;;;;;9.75;2.30;;;;;;;;;;4926341;29;20048;-76
2023/11/07 14:11:04;;;;;;;4.80;2.08;;;;;;;;;;4926410;29;20426;-76
2023/11/07 14:13:34;;;;;;;5.70;1.70;;;;;;;;;;4925986;29;20052;-75
2023/11/07 14:16:05;;;;;;;2.47;1.50;;;;;;;;;;4925774;29;20060;-76
2023/11/07 14:18:36;;;;;;;4.32;2.15;;;;;;;;;;4924896;29;20059;-76
2023/11/07 14:21:07;;;;;;;5.18;1.98;;;;;;;;;;4925661;29;20055;-74
2023/11/07 14:23:39;;;;;;;4.05;1.50;;;;;;;;;;4925677;29;20051;-75
2023/11/07 14:26:09;;;;;;;5.80;1.90;;;;;;;;;;4926183;29;20059;-77
2023/11/07 14:28:42;;;;;;;5.57;2.30;;;;;;;;;;4925452;29;20052;-76
2023/11/07 14:31:18;;;;;;;5.93;2.35;;;;;;;;;;4925735;29;20047;-75
2023/11/07 14:33:50;;;;;;;;;;;;;;;;;;4924232;29;20059;-74
2023/11/07 14:36:20;;;;;;;4.70;1.85;;;;;;;;;;4925952;29;19926;-75
2023/11/07 14:38:52;;;;;;;5.20;2.17;;;;;;;;;;4925677;29;20051;-75
2023/11/07 14:41:24;;;;;;;4.30;1.85;;;;;;;;;;4923996;29;20043;-74
2023/11/07 14:43:54;;;;;;;5.82;2.00;;;;;;;;;;4925440;29;20058;-75
2023/11/07 14:46:24;;;;;;;4.47;2.00;;;;;;;;;;4926085;29;20051;-76
2023/11/07 14:48:55;;;;;;;6.00;1.88;;;;;;;;;;4925284;29;20056;-75
2023/11/07 14:51:26;;;;;;;3.45;1.63;;;;;;;;;;4925210;29;20518;-74
2023/11/07 14:53:57;;;;;;;4.60;1.75;;;;;;;;;;4925170;29;20059;-78
2023/11/07 14:56:28;;;;;;;5.53;2.20;;;;;;;;;;4925603;29;20047;-76
2023/11/07 14:58:59;;;;;;;2.95;1.70;;;;;;;;;;4923444;29;20085;-76
2023/11/07 15:01:31;;;;;;;5.20;1.60;;;;;;;;;;4924711;29;20058;-75
2023/11/07 15:04:02;;;;;;;3.50;1.70;;;;;;;;;;4927236;29;20503;-74
2023/11/07 15:06:33;;;;;;;3.58;1.75;;;;;;;;;;4926045;29;20036;-77
2023/11/07 15:09:06;;;;;;;4.53;2.00;;;;;;;;;;4925099;29;20055;-72
2023/11/07 15:11:47;;;;;;;4.53;2.00;;;;;;;;;;4927841;29;20507;-76
2023/11/07 15:14:21;;;;;;;2.17;1.45;;;;;;;;;;4923458;29;20051;-76
2023/11/07 15:16:52;;;;;;;6.35;1.88;;;;;;;;;;4923984;29;20059;-75